Portada
METAR-TAF:

METAR-TAF

Aeropuertos :

San Sebastián, España

Aeropuerto de San Sebastián

latitud: 43-21N, longitud: 001-48W, altitud: 5 m

Observación

El informe se hizo hace 42 minutos, a las 07:30 UTC
Viento 2 kt con dirección variable
Temperatura 15°C
Humedad 63%
Presión 1025 hPa
Visibilidad 10 km o más
sin nubes por debajo de 1500 m y sin presencia de cumulonimbus.

METAR: LESO 280730Z VRB02KT CAVOK 15/08 Q1025

Hora: 10:12 (08:12 UTC)

Pronóstico

El informe se hizo hace 3 horas y 12 minutos, a las 05:00 UTC
Pronóstico válido del 28 a las 06 UTC al 29 a las 06 UTC
Viento 7 kt del sur
Visibilidad 10 km o más
sin nubes por debajo de 1500 m y sin presencia de cumulonimbus.
Temporalmente
del 28 a las 12 UTC al 28 a las 18 UTC
Viento 10 kt del norte-noreste

TAF: LESO 280500Z 2806/2906 18007KT CAVOK TX19/2814Z TN10/2906Z TEMPO 2812/2818 03010KT

Observaciones y pronósticos meteorológicos de más de 4000 aeropuertos (mensajes METAR y TAF).

Los puntos amarillos y rojos representan las estaciones disponibles.

Ponga el ratón en el punto deseado para ver el nombre de la estación.

Haga clic para ver las observaciones y los pronósticos meteorológicos.

Para cambiar el mapa : haga clic en los botones verdes con una cruz de color negro para hacer un zoom, en el botón verde con un guión para alejar o en las flechas verdes para mapas adyacentes.


METAR-TAF: